createdAt,value
2023-05-09T00:02:09.357Z,12.07
2023-05-09T00:05:10.911Z,12.09
2023-05-09T00:08:13.152Z,12.02
2023-05-09T00:11:15.099Z,12.18
2023-05-09T00:14:17.667Z,12.27
2023-05-09T00:17:18.968Z,12.03
2023-05-09T00:20:21.116Z,11.90
2023-05-09T00:23:22.435Z,11.91
2023-05-09T00:26:24.468Z,11.84
2023-05-09T00:29:25.750Z,11.92
2023-05-09T00:32:28.490Z,11.88
2023-05-09T00:35:31.522Z,11.82
2023-05-09T00:38:33.026Z,11.71
2023-05-09T00:41:35.111Z,11.65
2023-05-09T00:44:36.539Z,11.73
2023-05-09T00:47:38.315Z,11.76
2023-05-09T00:50:40.086Z,11.71
2023-05-09T00:53:41.541Z,11.70
2023-05-09T00:56:43.957Z,11.74
2023-05-09T00:59:45.393Z,11.49
2023-05-09T01:02:50.558Z,11.65
2023-05-09T01:05:57.564Z,11.48
2023-05-09T01:09:06.712Z,11.48
2023-05-09T01:12:16.383Z,11.47
2023-05-09T01:15:24.468Z,11.43
2023-05-09T01:18:31.433Z,11.45
2023-05-09T01:21:34.884Z,11.66
2023-05-09T01:25:09.766Z,11.50
2023-05-09T01:28:16.468Z,11.35
2023-05-09T01:31:20.034Z,11.41
2023-05-09T01:34:24.991Z,11.45
2023-05-09T01:37:31.022Z,11.49
2023-05-09T01:40:34.209Z,11.50
2023-05-09T01:43:37.936Z,11.35
2023-05-09T01:46:44.164Z,11.32
2023-05-09T01:49:47.571Z,11.27
2023-05-09T01:52:53.176Z,11.38
2023-05-09T01:55:56.579Z,11.32
2023-05-09T01:59:00.851Z,11.27
2023-05-09T02:02:04.346Z,11.23
2023-05-09T02:05:08.848Z,11.13
2023-05-09T02:08:11.579Z,11.20
2023-05-09T02:11:13.426Z,11.13
2023-05-09T02:14:15.762Z,11.33
2023-05-09T02:17:18.508Z,11.23
2023-05-09T02:20:20.575Z,11.15
2023-05-09T02:23:22.350Z,11.00
2023-05-09T02:26:25.205Z,11.07
2023-05-09T02:29:37.910Z,11.18
2023-05-09T02:32:42.666Z,11.33
2023-05-09T02:35:50.719Z,11.01
2023-05-09T02:38:52.844Z,11.16
2023-05-09T02:41:54.294Z,10.86
2023-05-09T02:44:56.231Z,10.83
2023-05-09T02:47:58.539Z,10.90
2023-05-09T02:50:59.972Z,10.95
2023-05-09T02:54:01.622Z,10.77
2023-05-09T02:57:03.308Z,10.74
2023-05-09T03:00:08.837Z,10.84
2023-05-09T03:03:11.260Z,10.76
2023-05-09T03:06:13.625Z,10.74
2023-05-09T03:09:15.144Z,10.72
2023-05-09T03:12:16.864Z,10.68
2023-05-09T03:15:18.718Z,10.75
2023-05-09T03:18:20.823Z,10.77
2023-05-09T03:21:22.706Z,10.80
2023-05-09T03:24:27.501Z,10.75
2023-05-09T03:27:29.412Z,10.66
2023-05-09T03:30:31.000Z,10.76
2023-05-09T03:33:33.712Z,10.65
2023-05-09T03:36:35.200Z,10.72
2023-05-09T03:39:36.828Z,10.70
2023-05-09T03:42:38.500Z,10.76
2023-05-09T03:45:40.097Z,10.74
2023-05-09T03:48:42.385Z,10.59
2023-05-09T03:51:44.118Z,10.60
2023-05-09T03:54:48.721Z,10.70
2023-05-09T03:57:50.205Z,10.61
2023-05-09T04:00:51.960Z,10.76
2023-05-09T04:03:54.349Z,10.78
2023-05-09T04:06:56.416Z,10.66
2023-05-09T04:09:58.073Z,10.78
2023-05-09T04:12:59.843Z,10.81
2023-05-09T04:16:01.559Z,10.82
2023-05-09T04:19:04.145Z,10.80
2023-05-09T04:22:05.522Z,10.84
2023-05-09T04:25:11.656Z,10.89
2023-05-09T04:28:13.239Z,10.92
2023-05-09T04:31:15.049Z,11.19
2023-05-09T04:34:17.471Z,11.56
2023-05-09T04:37:19.702Z,11.75
2023-05-09T04:40:21.235Z,11.73
2023-05-09T04:43:25.708Z,11.92
2023-05-09T04:46:27.117Z,12.15
2023-05-09T04:49:29.380Z,12.10
2023-05-09T04:52:30.977Z,12.58
2023-05-09T04:55:32.465Z,12.78
2023-05-09T04:58:37.698Z,12.95
2023-05-09T05:01:39.101Z,13.30
2023-05-09T05:04:41.614Z,13.37
2023-05-09T05:07:43.268Z,13.36
2023-05-09T05:10:44.724Z,13.81
2023-05-09T05:13:46.391Z,13.96
2023-05-09T05:16:47.972Z,14.03
2023-05-09T05:19:50.216Z,14.15
2023-05-09T05:22:53.894Z,14.03
2023-05-09T05:25:55.411Z,14.37
2023-05-09T05:28:56.970Z,14.69
2023-05-09T05:31:58.530Z,14.72
2023-05-09T05:35:01.976Z,14.86
2023-05-09T05:38:03.543Z,14.87
2023-05-09T05:41:05.632Z,14.64
2023-05-09T05:44:09.664Z,14.95
2023-05-09T05:47:11.023Z,15.13
2023-05-09T05:50:13.618Z,15.24
2023-05-09T05:53:15.319Z,15.66
2023-05-09T05:56:16.905Z,16.17
2023-05-09T05:59:18.346Z,16.14
2023-05-09T06:02:19.873Z,16.00
2023-05-09T06:05:22.000Z,16.24
2023-05-09T06:08:23.603Z,16.29
2023-05-09T06:11:25.076Z,16.39
2023-05-09T06:14:26.939Z,16.52
2023-05-09T06:17:28.740Z,16.85
2023-05-09T06:20:30.854Z,17.25
2023-05-09T06:23:32.519Z,17.10
2023-05-09T06:26:33.881Z,17.03
2023-05-09T06:29:35.468Z,17.08
2023-05-09T06:32:36.874Z,17.25
2023-05-09T06:35:39.187Z,17.75
2023-05-09T06:38:40.522Z,18.06
2023-05-09T06:41:42.168Z,17.87
2023-05-09T06:44:43.582Z,18.15
2023-05-09T06:47:45.242Z,18.38
2023-05-09T06:50:48.293Z,18.30
2023-05-09T06:53:50.282Z,18.14
2023-05-09T06:56:51.816Z,18.50
2023-05-09T06:59:53.165Z,18.75
2023-05-09T07:02:55.257Z,18.77
2023-05-09T07:05:58.381Z,18.40
2023-05-09T07:09:03.401Z,18.79
2023-05-09T07:12:05.661Z,18.55
2023-05-09T07:15:08.411Z,19.39
2023-05-09T07:18:10.012Z,18.93
2023-05-09T07:21:12.518Z,19.36
2023-05-09T07:24:14.099Z,19.49
2023-05-09T07:27:15.554Z,19.79
2023-05-09T07:30:17.251Z,19.56
2023-05-09T07:33:19.056Z,19.76
2023-05-09T07:36:21.350Z,20.10
2023-05-09T07:39:22.831Z,20.14
2023-05-09T07:42:24.441Z,20.24
2023-05-09T07:45:25.917Z,20.55
2023-05-09T07:48:27.539Z,20.55
2023-05-09T07:51:29.703Z,21.05
2023-05-09T07:54:31.536Z,20.83
2023-05-09T07:57:33.009Z,20.91
2023-05-09T08:00:34.596Z,21.29
2023-05-09T08:03:36.187Z,21.47
2023-05-09T08:06:38.559Z,22.16
2023-05-09T08:09:39.995Z,22.27
2023-05-09T08:12:41.783Z,22.80
2023-05-09T08:15:43.698Z,22.50
2023-05-09T08:18:45.876Z,22.25
2023-05-09T08:21:48.366Z,22.43
2023-05-09T08:24:50.210Z,22.46
2023-05-09T08:27:53.043Z,21.96
2023-05-09T08:30:56.350Z,22.24
2023-05-09T08:33:58.325Z,22.21
2023-05-09T08:37:00.574Z,22.54
2023-05-09T08:40:07.040Z,23.17
2023-05-09T08:43:08.891Z,23.59
2023-05-09T08:46:13.173Z,23.03
2023-05-09T08:49:15.696Z,23.33
2023-05-09T08:52:18.564Z,22.86
2023-05-09T08:55:20.491Z,22.40
2023-05-09T08:58:22.418Z,23.34
2023-05-09T09:01:26.190Z,23.09
2023-05-09T09:04:27.990Z,22.63
2023-05-09T09:07:33.298Z,22.92
2023-05-09T09:10:35.198Z,23.36
2023-05-09T09:13:40.290Z,23.13
2023-05-09T09:16:44.724Z,23.53
2023-05-09T09:19:49.522Z,23.43
2023-05-09T09:22:55.234Z,23.58
2023-05-09T09:26:01.254Z,23.12
2023-05-09T09:29:03.330Z,23.05
2023-05-09T09:32:06.696Z,23.56
2023-05-09T09:35:10.342Z,23.99
2023-05-09T09:38:15.018Z,23.23
2023-05-09T09:41:16.729Z,23.27
2023-05-09T09:44:19.282Z,23.31
2023-05-09T09:47:20.975Z,23.33
2023-05-09T09:50:24.076Z,23.35
2023-05-09T09:53:29.732Z,23.62
2023-05-09T09:56:41.947Z,23.65
2023-05-09T09:59:58.373Z,24.08
2023-05-09T10:03:00.667Z,23.93
2023-05-09T10:06:02.266Z,23.85
2023-05-09T10:09:04.639Z,24.25
2023-05-09T10:12:07.990Z,24.44
2023-05-09T10:15:11.888Z,24.51
2023-05-09T10:18:19.255Z,24.29
2023-05-09T10:21:20.870Z,24.46
2023-05-09T10:24:28.314Z,23.96
2023-05-09T10:27:33.993Z,23.90
2023-05-09T10:30:37.722Z,24.16
2023-05-09T10:33:46.047Z,23.99
2023-05-09T10:36:48.695Z,23.79
2023-05-09T10:39:53.037Z,24.17
2023-05-09T10:42:54.672Z,24.59
2023-05-09T10:45:56.330Z,24.86
2023-05-09T10:48:58.473Z,25.43
2023-05-09T10:52:00.082Z,25.70
2023-05-09T10:55:03.874Z,25.43
2023-05-09T10:58:23.894Z,25.38
2023-05-09T11:01:30.365Z,25.14
2023-05-09T11:04:32.611Z,25.39
2023-05-09T11:07:34.106Z,25.49
2023-05-09T11:10:42.474Z,25.34
2023-05-09T11:13:46.088Z,24.62
2023-05-09T11:16:57.498Z,24.97
2023-05-09T11:20:05.296Z,24.69
2023-05-09T11:23:11.116Z,25.26
2023-05-09T11:26:15.553Z,25.60
2023-05-09T11:29:17.908Z,25.19
2023-05-09T11:32:20.348Z,24.80
2023-05-09T11:35:23.175Z,24.07
2023-05-09T11:38:25.063Z,24.52
2023-05-09T11:41:27.559Z,24.46
2023-05-09T11:44:32.692Z,24.66
2023-05-09T11:47:36.523Z,24.40
2023-05-09T11:50:38.039Z,24.54
2023-05-09T11:53:45.955Z,24.04
2023-05-09T11:56:48.543Z,24.20
2023-05-09T11:59:50.378Z,24.39
2023-05-09T12:02:52.726Z,23.61
2023-05-09T12:05:54.957Z,23.77
2023-05-09T12:08:56.853Z,24.07
2023-05-09T12:12:00.451Z,23.55
2023-05-09T12:15:04.231Z,23.54
2023-05-09T12:18:07.811Z,23.23
2023-05-09T12:21:09.485Z,23.30
2023-05-09T12:24:11.066Z,23.56
2023-05-09T12:27:13.529Z,23.79
2023-05-09T12:30:15.535Z,24.02
2023-05-09T12:33:17.895Z,23.93
2023-05-09T12:36:19.472Z,24.13
2023-05-09T12:39:22.247Z,23.61
2023-05-09T12:42:27.114Z,23.84
2023-05-09T12:45:28.532Z,23.91
2023-05-09T12:48:34.784Z,24.01
2023-05-09T12:51:36.792Z,23.33
2023-05-09T12:54:38.263Z,23.54
2023-05-09T12:57:41.263Z,23.39
2023-05-09T13:00:43.131Z,22.97
2023-05-09T13:03:44.661Z,22.81
2023-05-09T13:06:51.233Z,23.10
2023-05-09T13:09:56.560Z,23.17
2023-05-09T13:12:58.841Z,23.18
2023-05-09T13:16:00.403Z,22.98
2023-05-09T13:19:01.956Z,23.17
2023-05-09T13:22:03.491Z,23.22
2023-05-09T13:25:05.894Z,23.20
2023-05-09T13:28:08.446Z,23.16
2023-05-09T13:31:10.214Z,22.92
2023-05-09T13:34:11.702Z,22.62
2023-05-09T13:37:13.212Z,22.96
2023-05-09T13:40:14.806Z,22.90
2023-05-09T13:43:17.402Z,22.58
2023-05-09T13:46:18.928Z,22.56
2023-05-09T13:49:20.933Z,22.70
2023-05-09T13:52:23.514Z,22.65
2023-05-09T13:55:25.717Z,22.67
2023-05-09T13:58:28.515Z,22.48
2023-05-09T14:01:30.340Z,22.46
2023-05-09T14:04:32.213Z,22.49
2023-05-09T14:07:33.846Z,22.65
2023-05-09T14:10:35.364Z,22.30
2023-05-09T14:13:37.733Z,22.26
2023-05-09T14:16:39.907Z,22.53
2023-05-09T14:19:41.584Z,22.45
2023-05-09T14:22:43.123Z,22.27
2023-05-09T14:25:44.670Z,22.40
2023-05-09T14:28:46.803Z,22.41
2023-05-09T14:31:48.316Z,22.41
2023-05-09T14:34:50.157Z,22.43
2023-05-09T14:37:51.560Z,22.02
2023-05-09T14:40:53.346Z,22.13
2023-05-09T14:43:55.497Z,22.05
2023-05-09T14:46:56.974Z,21.81
2023-05-09T14:49:58.400Z,21.97
2023-05-09T14:53:00.481Z,22.21
2023-05-09T14:56:02.432Z,21.83
2023-05-09T14:59:04.682Z,21.89
2023-05-09T15:02:06.677Z,22.07
2023-05-09T15:05:09.250Z,21.91
2023-05-09T15:08:10.751Z,21.77
2023-05-09T15:11:12.148Z,21.71
2023-05-09T15:14:14.457Z,21.89
2023-05-09T15:17:15.870Z,22.06
2023-05-09T15:20:18.792Z,21.90
2023-05-09T15:23:20.534Z,21.69
2023-05-09T15:26:21.953Z,21.62
2023-05-09T15:29:24.031Z,21.57
2023-05-09T15:32:26.255Z,21.51
2023-05-09T15:35:27.673Z,21.37
2023-05-09T15:38:29.479Z,21.28
2023-05-09T15:41:31.535Z,21.37
2023-05-09T15:44:33.828Z,21.25
2023-05-09T15:47:35.401Z,21.16
2023-05-09T15:50:37.343Z,21.28
2023-05-09T15:53:38.761Z,21.36
2023-05-09T15:56:40.418Z,21.26
2023-05-09T15:59:42.422Z,21.36
2023-05-09T16:02:44.228Z,21.33
2023-05-09T16:05:45.983Z,21.29
2023-05-09T16:08:47.493Z,21.02
2023-05-09T16:11:49.048Z,20.91
2023-05-09T16:14:51.163Z,20.87
2023-05-09T16:17:54.253Z,20.89
2023-05-09T16:20:55.966Z,20.90
2023-05-09T16:23:57.580Z,21.07
2023-05-09T16:26:59.213Z,20.87
2023-05-09T16:30:01.275Z,20.90
2023-05-09T16:33:02.976Z,20.72
2023-05-09T16:36:05.197Z,20.63
2023-05-09T16:39:06.984Z,20.68
2023-05-09T16:42:09.116Z,20.60
2023-05-09T16:45:11.845Z,20.59
2023-05-09T16:48:13.330Z,20.58
2023-05-09T16:51:14.865Z,20.94
2023-05-09T16:54:16.608Z,20.56
2023-05-09T16:57:18.311Z,20.46
2023-05-09T17:00:21.969Z,20.41
2023-05-09T17:03:23.495Z,20.29
2023-05-09T17:06:25.646Z,20.15
2023-05-09T17:09:27.036Z,20.28
2023-05-09T17:12:28.570Z,20.06
2023-05-09T17:15:30.690Z,20.04
2023-05-09T17:18:37.611Z,20.10
2023-05-09T17:21:40.819Z,20.02
2023-05-09T17:24:42.203Z,20.01
2023-05-09T17:27:43.777Z,19.69
2023-05-09T17:30:45.952Z,19.77
2023-05-09T17:33:47.654Z,19.60
2023-05-09T17:36:49.328Z,19.53
2023-05-09T17:39:51.094Z,19.56
2023-05-09T17:42:52.781Z,19.58
2023-05-09T17:45:55.082Z,19.32
2023-05-09T17:48:57.056Z,19.44
2023-05-09T17:51:59.244Z,19.16
2023-05-09T17:55:00.979Z,19.21
2023-05-09T17:58:02.695Z,19.19
2023-05-09T18:01:05.008Z,19.04
2023-05-09T18:04:06.756Z,19.07
2023-05-09T18:07:09.954Z,18.99
2023-05-09T18:10:12.074Z,18.87
2023-05-09T18:13:13.532Z,18.75
2023-05-09T18:16:15.532Z,18.85
2023-05-09T18:19:17.067Z,18.80
2023-05-09T18:22:18.628Z,18.63
2023-05-09T18:25:20.118Z,18.51
2023-05-09T18:28:24.388Z,18.49
2023-05-09T18:31:26.933Z,18.49
2023-05-09T18:34:28.377Z,18.43
2023-05-09T18:37:30.137Z,18.66
2023-05-09T18:40:31.824Z,18.38
2023-05-09T18:43:33.278Z,18.18
2023-05-09T18:46:35.375Z,18.28
2023-05-09T18:49:38.069Z,18.25
2023-05-09T18:52:39.931Z,18.16
2023-05-09T18:55:42.009Z,18.12
2023-05-09T18:58:43.911Z,18.12
2023-05-09T19:01:45.992Z,18.05
2023-05-09T19:04:49.635Z,17.88
2023-05-09T19:07:51.879Z,18.10
2023-05-09T19:10:55.064Z,17.97
2023-05-09T19:13:56.558Z,17.78
2023-05-09T19:16:58.778Z,17.82
2023-05-09T19:20:01.651Z,17.83
2023-05-09T19:23:03.668Z,17.62
2023-05-09T19:26:05.137Z,17.62
2023-05-09T19:29:07.360Z,17.57
2023-05-09T19:32:09.571Z,17.57
2023-05-09T19:35:10.926Z,17.47
2023-05-09T19:38:12.343Z,17.74
2023-05-09T19:41:13.778Z,17.30
2023-05-09T19:44:15.063Z,17.34
2023-05-09T19:47:17.185Z,17.18
2023-05-09T19:50:18.946Z,17.36
2023-05-09T19:53:20.435Z,17.30
2023-05-09T19:56:22.441Z,17.27
2023-05-09T19:59:23.882Z,17.17
2023-05-09T20:02:25.972Z,17.24
2023-05-09T20:05:27.476Z,17.29
2023-05-09T20:08:29.255Z,17.22
2023-05-09T20:11:30.694Z,17.18
2023-05-09T20:14:32.081Z,17.01
2023-05-09T20:17:34.101Z,17.06
2023-05-09T20:20:35.590Z,16.95
2023-05-09T20:23:37.388Z,16.74
2023-05-09T20:26:38.977Z,16.85
2023-05-09T20:29:40.434Z,16.79
2023-05-09T20:32:42.827Z,16.80
2023-05-09T20:35:44.218Z,16.73
2023-05-09T20:38:45.670Z,16.65
2023-05-09T20:41:48.187Z,16.59
2023-05-09T20:44:50.747Z,16.56
2023-05-09T20:47:52.892Z,16.52
2023-05-09T20:50:54.227Z,16.55
2023-05-09T20:53:55.649Z,16.44
2023-05-09T20:56:57.100Z,16.46
2023-05-09T20:59:58.464Z,16.48
2023-05-09T21:03:00.576Z,16.33
2023-05-09T21:06:01.964Z,16.29
2023-05-09T21:09:04.199Z,16.44
2023-05-09T21:12:06.242Z,16.27
2023-05-09T21:15:08.541Z,16.27
2023-05-09T21:18:10.777Z,16.20
2023-05-09T21:21:12.188Z,16.04
2023-05-09T21:24:13.575Z,16.16
2023-05-09T21:27:14.850Z,16.24
2023-05-09T21:30:16.826Z,16.08
2023-05-09T21:33:19.100Z,15.90
2023-05-09T21:36:20.553Z,16.03
2023-05-09T21:39:21.862Z,16.00
2023-05-09T21:42:23.397Z,15.93
2023-05-09T21:45:24.707Z,16.02
2023-05-09T21:48:26.801Z,15.83
2023-05-09T21:51:28.469Z,16.05
2023-05-09T21:54:29.961Z,15.98
2023-05-09T21:57:31.420Z,15.71
2023-05-09T22:00:32.768Z,15.58
2023-05-09T22:03:35.112Z,15.53
2023-05-09T22:06:36.513Z,15.66
2023-05-09T22:09:37.887Z,15.53
2023-05-09T22:12:39.369Z,15.38
2023-05-09T22:15:41.895Z,15.52
2023-05-09T22:18:43.970Z,15.55
2023-05-09T22:21:45.241Z,15.52
2023-05-09T22:24:46.684Z,15.41
2023-05-09T22:27:47.934Z,15.35
2023-05-09T22:30:49.386Z,15.23
2023-05-09T22:33:51.593Z,15.32
2023-05-09T22:36:54.201Z,15.19
2023-05-09T22:39:55.664Z,15.28
2023-05-09T22:42:57.126Z,15.13
2023-05-09T22:45:58.607Z,15.16
2023-05-09T22:49:00.568Z,15.12
2023-05-09T22:52:02.009Z,15.19
2023-05-09T22:55:03.803Z,15.14
2023-05-09T22:58:05.801Z,14.99
2023-05-09T23:01:07.251Z,14.89
2023-05-09T23:04:09.267Z,14.85
2023-05-09T23:07:10.824Z,14.79
2023-05-09T23:10:12.111Z,14.89
2023-05-09T23:13:13.611Z,14.79
2023-05-09T23:16:15.503Z,14.72
2023-05-09T23:19:18.869Z,14.62
2023-05-09T23:22:20.286Z,14.70
2023-05-09T23:25:21.750Z,14.58
2023-05-09T23:28:24.549Z,14.74
2023-05-09T23:31:26.022Z,14.58
2023-05-09T23:34:28.745Z,14.65
2023-05-09T23:37:30.213Z,14.53
2023-05-09T23:40:31.498Z,14.44
2023-05-09T23:43:33.457Z,14.54
2023-05-09T23:46:34.842Z,14.59
2023-05-09T23:49:36.927Z,14.45
2023-05-09T23:52:38.351Z,14.45
2023-05-09T23:55:39.595Z,14.43
2023-05-09T23:58:42.056Z,14.44
